createdAt,value
2023-01-08T00:14:57.392Z,10.3
2023-01-08T00:24:59.237Z,10.2
2023-01-08T00:35:01.854Z,10.2
2023-01-08T00:45:03.897Z,10.3
2023-01-08T00:55:06.093Z,10.4
2023-01-08T01:05:08.623Z,10.3
2023-01-08T01:15:10.883Z,10.3
2023-01-08T01:25:12.996Z,10.3
2023-01-08T01:35:14.789Z,10.3
2023-01-08T01:45:16.469Z,10.3
2023-01-08T02:05:21.044Z,10.3
2023-01-08T02:15:23.347Z,10.3
2023-01-08T02:35:27.843Z,10.3
2023-01-08T02:45:30.148Z,10.3
2023-01-08T03:05:34.058Z,10.2
2023-01-08T03:15:36.071Z,10.2
2023-01-08T03:35:40.465Z,10.1
2023-01-08T03:55:45.294Z,10
2023-01-08T04:05:47.776Z,10
2023-01-08T04:15:50.196Z,10
2023-01-08T04:25:52.656Z,10
2023-01-08T04:35:54.712Z,9.9
2023-01-08T04:45:57.346Z,9.9
2023-01-08T04:55:59.468Z,9.9
2023-01-08T05:06:01.313Z,9.9
2023-01-08T05:16:03.672Z,9.9
2023-01-08T05:26:06.268Z,9.8
2023-01-08T05:36:08.352Z,9.8
2023-01-08T05:56:12.308Z,9.8
2023-01-08T06:06:14.369Z,9.7
2023-01-08T06:16:16.248Z,9.7
2023-01-08T06:36:20.851Z,9.7
2023-01-08T06:46:23.158Z,9.7
2023-01-08T06:56:24.833Z,9.6
2023-01-08T07:06:26.783Z,9.7
2023-01-08T07:16:28.952Z,9.7
2023-01-08T07:26:31.343Z,9.3
2023-01-08T07:36:33.257Z,8.6
2023-01-08T07:46:35.103Z,8.2
2023-01-08T07:56:36.922Z,8
2023-01-08T08:06:38.573Z,7.9
2023-01-08T08:16:41.112Z,7.9
2023-01-08T08:26:43.271Z,7.9
2023-01-08T08:46:47.208Z,8
2023-01-08T08:56:49.180Z,7.9
2023-01-08T09:06:50.865Z,7.9
2023-01-08T09:16:52.858Z,8.1
2023-01-08T09:26:54.591Z,8.3
2023-01-08T09:36:56.907Z,8.5
2023-01-08T09:46:59.058Z,8.6
2023-01-08T10:07:03.403Z,9.2
2023-01-08T10:17:05.807Z,9.3
2023-01-08T10:27:07.424Z,9.5
2023-01-08T10:37:09.599Z,9.7
2023-01-08T10:47:12.063Z,9.5
2023-01-08T10:57:14.429Z,9.6
2023-01-08T11:07:16.627Z,9.9
2023-01-08T11:17:19.063Z,10.3
2023-01-08T11:37:22.725Z,10.8
2023-01-08T11:47:25.137Z,10.6
2023-01-08T11:57:27.493Z,10.6
2023-01-08T12:07:29.776Z,10.7
2023-01-08T12:17:32.242Z,10.6
2023-01-08T12:27:55.142Z,10.6
2023-01-08T12:47:38.429Z,10.8
2023-01-08T13:07:43.034Z,7.5
2023-01-08T13:17:45.438Z,7.6
2023-01-08T13:27:48.140Z,8.2
2023-01-08T13:37:49.851Z,8.4
2023-01-08T13:47:52.345Z,8.4
2023-01-08T13:57:54.271Z,8.4
2023-01-08T14:07:56.612Z,8.7
2023-01-08T14:28:00.843Z,9.2
2023-01-08T14:38:02.950Z,9.3
2023-01-08T14:48:04.915Z,9.2
2023-01-08T14:58:06.740Z,9.3
2023-01-08T15:08:08.507Z,9.2
2023-01-08T15:18:10.397Z,9.2
2023-01-08T15:38:14.524Z,9.1
2023-01-08T15:48:16.856Z,9
2023-01-08T15:58:19.468Z,8.9
2023-01-08T16:08:22.091Z,8.7
2023-01-08T16:18:24.334Z,8.7
2023-01-08T16:28:26.746Z,8.8
2023-01-08T16:38:28.910Z,8.8
2023-01-08T16:48:30.979Z,8.9
2023-01-08T16:58:33.218Z,9.1
2023-01-08T17:08:35.440Z,9.2
2023-01-08T17:18:37.293Z,9.2
2023-01-08T17:28:39.001Z,9.3
2023-01-08T17:48:43.482Z,9.3
2023-01-08T17:58:46.082Z,9.1
2023-01-08T18:08:48.602Z,9
2023-01-08T18:18:50.554Z,8.8
2023-01-08T18:28:52.645Z,8.6
2023-01-08T18:38:54.571Z,8.4
2023-01-08T18:48:56.897Z,8.4
2023-01-08T18:58:59.014Z,8.4
2023-01-08T19:09:00.967Z,8.4
2023-01-08T19:19:02.978Z,8.2
2023-01-08T19:29:05.648Z,8.1
2023-01-08T19:39:08.142Z,8.1
2023-01-08T19:49:10.736Z,8.1
2023-01-08T19:59:12.505Z,8.1
2023-01-08T20:09:14.352Z,8
2023-01-08T20:19:16.031Z,8.2
2023-01-08T20:29:18.439Z,8.4
2023-01-08T20:39:20.713Z,8.4
2023-01-08T20:49:23.362Z,8.5
2023-01-08T20:59:25.382Z,8.6
2023-01-08T21:09:27.238Z,8.7
2023-01-08T21:19:29.796Z,8.7
2023-01-08T21:29:32.172Z,8.6
2023-01-08T21:39:34.522Z,8.6
2023-01-08T21:49:36.645Z,8.8
2023-01-08T21:59:39.070Z,9
2023-01-08T22:19:43.387Z,9
2023-01-08T22:39:47.506Z,8.9
2023-01-08T22:49:49.421Z,9
2023-01-08T22:59:51.548Z,8.9
2023-01-08T23:09:53.728Z,8.8
2023-01-08T23:19:56.235Z,8.8
2023-01-08T23:29:58.901Z,8.9
2023-01-08T23:40:01.360Z,8.7
2023-01-08T23:50:03.726Z,8.4
2023-01-08T23:52:42.111Z,8.4
